Time;durP1;ratioP1;P1;durP2;ratioP2;P2;SDS_P1;SDS_P2;PMS_P1;PMS_P2;Temp;Humidity;BMP_temperature;BMP_pressure;BME280_temperature;BME280_humidity;BME280_pressure;Samples;Min_cycle;Max_cycle;Signal;HPM_P1;HPM_P2
2023/07/23 00:02:00;;;;;;;2.60;2.00;;;21.60;89.20;;;22.04;nan;100251.94;4996826;28;20642;-66
2023/07/23 00:04:27;;;;;;;2.20;2.00;;;21.50;89.40;;;22.02;nan;100244.13;5001938;28;20640;-66
2023/07/23 00:06:54;;;;;;;3.90;2.70;;;21.50;89.50;;;22.03;nan;100250.28;4999463;28;20677;-67
2023/07/23 00:09:21;;;;;;;2.47;2.27;;;21.50;89.70;;;22.01;nan;100247.00;4982196;28;20635;-66
2023/07/23 00:11:48;;;;;;;2.20;2.10;;;21.60;90.00;;;22.02;nan;100243.34;4985426;28;20646;-64
2023/07/23 00:14:15;;;;;;;3.33;3.03;;;21.60;90.10;;;21.96;nan;100239.59;4981383;28;20642;-68
2023/07/23 00:16:42;;;;;;;3.13;2.50;;;21.50;90.20;;;21.91;nan;100241.19;4985455;28;20678;-66
2023/07/23 00:19:13;;;;;;;3.33;2.73;;;21.50;90.30;;;21.87;nan;100235.44;4994595;28;20638;-68
2023/07/23 00:21:40;;;;;;;1.80;1.70;;;21.50;90.40;;;21.81;nan;100240.66;5000902;28;20659;-67
2023/07/23 00:24:07;;;;;;;2.37;2.17;;;21.40;90.60;;;21.69;nan;100237.72;4997320;28;20674;-66
2023/07/23 00:26:34;;;;;;;2.37;2.13;;;21.30;90.80;;;21.55;nan;100239.41;4990633;28;20676;-66
2023/07/23 00:29:01;;;;;;;1.80;1.70;;;21.20;91.20;;;21.45;nan;100241.56;4997185;28;20643;-66
2023/07/23 00:31:28;;;;;;;5.90;2.10;;;21.00;91.50;;;21.32;nan;100233.47;5009459;28;21010;-67
2023/07/23 00:33:55;;;;;;;2.20;2.00;;;21.00;91.70;;;21.23;nan;100231.16;5005637;28;20675;-66
2023/07/23 00:36:22;;;;;;;2.40;2.20;;;20.90;91.90;;;21.17;nan;100238.00;5008644;28;20662;-66
2023/07/23 00:38:49;;;;;;;3.33;2.50;;;20.80;92.00;;;21.14;nan;100233.09;4997618;28;20652;-66
2023/07/23 00:41:17;;;;;;;2.50;2.30;;;20.80;92.20;;;21.11;nan;100225.50;5006244;28;20648;-66
2023/07/23 00:43:44;;;;;;;2.10;2.00;;;20.70;92.30;;;21.07;nan;100224.25;5011922;28;20673;-66
2023/07/23 00:46:12;;;;;;;2.43;2.23;;;20.70;92.30;;;21.00;nan;100228.59;4988768;28;20658;-66
2023/07/23 00:48:39;;;;;;;2.67;2.40;;;20.60;92.50;;;20.93;nan;100214.47;4988757;28;20626;-66
2023/07/23 00:51:06;;;;;;;3.53;2.60;;;20.50;92.60;;;20.86;nan;100229.47;5003407;28;20637;-67
2023/07/23 00:53:32;;;;;;;3.17;2.30;;;20.40;92.80;;;20.84;nan;100219.06;4996748;28;20665;-65
2023/07/23 00:55:59;;;;;;;2.23;2.03;;;20.40;92.90;;;20.78;nan;100224.28;5005381;28;21330;-65
2023/07/23 00:58:26;;;;;;;2.47;2.10;;;20.40;93.10;;;20.71;nan;100224.19;5006641;28;20629;-65
2023/07/23 01:00:53;;;;;;;2.47;2.30;;;20.30;93.40;;;20.69;nan;100217.44;5004109;28;21132;-64
2023/07/23 01:03:20;;;;;;;2.37;2.20;;;20.30;93.40;;;20.66;nan;100217.78;4993965;28;20680;-65
2023/07/23 01:05:50;;;;;;;1.93;1.83;;;20.30;93.50;;;20.63;nan;100215.53;4993844;28;20666;-65
2023/07/23 01:08:20;;;;;;;5.00;2.30;;;20.20;93.60;;;20.59;nan;100216.91;4991574;28;20630;-65
2023/07/23 01:10:47;;;;;;;2.20;1.97;;;20.20;93.80;;;20.57;nan;100213.63;5003655;28;21213;-65
2023/07/23 01:13:15;;;;;;;2.30;1.93;;;20.10;94.00;;;20.50;nan;100213.53;4999125;28;20645;-67
2023/07/23 01:15:43;;;;;;;2.73;2.40;;;20.10;94.20;;;20.46;nan;100204.31;4990342;28;20665;-65
2023/07/23 01:18:10;;;;;;;1.93;1.80;;;20.00;94.40;;;20.45;nan;100199.16;4982035;28;20647;-64
2023/07/23 01:20:37;;;;;;;2.60;2.03;;;20.00;94.60;;;20.38;nan;100208.88;4991227;28;20683;-65
2023/07/23 01:23:04;;;;;;;3.13;2.40;;;20.00;95.00;;;20.33;nan;100195.34;5004227;28;20677;-65
2023/07/23 01:25:31;;;;;;;2.40;1.97;;;19.90;95.40;;;20.28;nan;100198.53;5009119;28;21015;-65
2023/07/23 01:27:58;;;;;;;2.20;2.10;;;19.90;95.60;;;20.23;nan;100200.09;5009816;28;21170;-67
2023/07/23 01:30:25;;;;;;;2.27;2.07;;;19.80;95.80;;;20.16;nan;100197.34;4997068;28;20689;-67
2023/07/23 01:32:52;;;;;;;2.80;1.80;;;19.80;96.10;;;20.13;nan;100206.47;5002059;28;20648;-67
2023/07/23 01:35:20;;;;;;;4.83;2.10;;;19.70;96.10;;;20.08;nan;100198.22;4994786;28;20705;-66
2023/07/23 01:37:47;;;;;;;1.77;1.67;;;19.70;96.20;;;20.05;nan;100192.47;4999714;28;20641;-64
2023/07/23 01:40:15;;;;;;;3.57;1.70;;;19.70;96.10;;;19.99;nan;100191.38;5001753;28;20642;-61
2023/07/23 01:42:45;;;;;;;3.07;2.20;;;19.60;96.10;;;19.98;nan;100192.38;5002685;28;20692;-66
2023/07/23 01:45:13;;;;;;;2.03;1.83;;;19.60;96.20;;;19.96;nan;100188.25;4972200;28;20677;-63
2023/07/23 01:47:40;;;;;;;2.60;2.40;;;19.60;96.20;;;19.98;nan;100191.56;4988516;28;20646;-66
2023/07/23 01:50:08;;;;;;;2.03;1.80;;;19.60;96.10;;;19.93;nan;100186.78;4984138;28;20643;-65
2023/07/23 01:52:35;;;;;;;2.10;1.80;;;19.50;96.10;;;19.83;nan;100178.28;5006481;28;20633;-65
2023/07/23 01:55:02;;;;;;;2.40;2.30;;;19.40;96.40;;;19.79;nan;100178.84;4992759;28;20680;-63
2023/07/23 01:57:29;;;;;;;3.47;2.90;;;19.40;96.60;;;19.77;nan;100184.31;5000072;28;20639;-65
2023/07/23 01:59:57;;;;;;;2.37;2.17;;;19.30;96.70;;;19.75;nan;100175.75;4992814;28;21276;-65
2023/07/23 02:02:24;;;;;;;1.80;1.70;;;19.30;96.80;;;19.75;nan;100175.75;4995991;28;21222;-64
2023/07/23 02:04:51;;;;;;;2.07;1.87;;;19.40;96.90;;;19.76;nan;100169.41;4976043;28;20689;-64
2023/07/23 02:07:18;;;;;;;1.60;1.50;;;19.30;97.00;;;19.79;nan;100177.03;5000016;28;20645;-64
2023/07/23 02:09:49;;;;;;;2.30;2.10;;;19.40;97.10;;;19.78;nan;100172.72;5005937;28;20637;-62
2023/07/23 02:12:17;;;;;;;1.93;1.83;;;19.40;97.20;;;19.76;nan;100165.97;5006501;28;20634;-65
2023/07/23 02:14:44;;;;;;;1.70;1.60;;;19.30;97.40;;;19.72;nan;100165.50;5006611;28;20644;-65
2023/07/23 02:17:11;;;;;;;2.20;2.00;;;19.30;97.80;;;19.72;nan;100165.50;5010120;28;21017;-65
2023/07/23 02:19:38;;;;;;;3.70;2.13;;;19.30;98.30;;;19.73;nan;100168.97;4992763;28;20629;-65
2023/07/23 02:22:05;;;;;;;7.70;2.17;;;19.30;98.90;;;19.68;nan;100164.22;4992642;28;20634;-63
2023/07/23 02:24:35;;;;;;;2.73;2.43;;;19.30;99.70;;;19.69;nan;100165.03;5006115;28;20676;-67
2023/07/23 02:27:02;;;;;;;4.13;2.40;;;19.30;99.90;;;19.67;nan;100167.06;4999490;28;20665;-66
2023/07/23 02:29:29;;;;;;;2.37;2.17;;;19.30;99.90;;;19.68;nan;100168.69;5001232;28;20671;-65
2023/07/23 02:31:56;;;;;;;2.97;2.43;;;19.30;99.90;;;19.66;nan;100174.16;4996692;28;20641;-68
2023/07/23 02:34:23;;;;;;;4.10;2.70;;;19.30;99.90;;;19.64;nan;100173.53;4996562;28;20642;-64
2023/07/23 02:36:50;;;;;;;2.73;1.97;;;19.30;99.90;;;19.63;nan;100171.06;4995956;28;20665;-64
2023/07/23 02:39:17;;;;;;;3.10;2.60;;;19.30;99.90;;;19.56;nan;100170.13;4993430;28;20673;-64
2023/07/23 02:41:44;;;;;;;2.33;2.03;;;19.20;99.90;;;19.54;nan;100170.31;5010625;28;20687;-64
2023/07/23 02:44:12;;;;;;;1.90;1.80;;;19.10;99.90;;;19.51;nan;100168.00;4981280;28;20686;-66
2023/07/23 02:46:39;;;;;;;2.57;2.37;;;19.10;99.90;;;19.46;nan;100170.38;5011758;28;20695;-67
2023/07/23 02:49:06;;;;;;;2.47;2.17;;;19.00;99.90;;;19.43;nan;100181.31;5004573;28;20644;-63
2023/07/23 02:51:33;;;;;;;2.40;1.90;;;19.00;99.90;;;19.38;nan;100172.28;4989721;28;20634;-65
2023/07/23 02:54:01;;;;;;;2.37;2.17;;;19.00;99.90;;;19.32;nan;100169.28;4994727;28;20642;-64
2023/07/23 02:56:27;;;;;;;3.90;2.17;;;18.90;99.90;;;19.28;nan;100169.81;5009825;28;20665;-66
2023/07/23 02:58:54;;;;;;;2.80;2.60;;;18.90;99.90;;;19.25;nan;100164.91;5002538;28;20641;-64
2023/07/23 03:01:21;;;;;;;3.37;2.47;;;18.90;99.90;;;19.21;nan;100171.53;5013221;28;20641;-64
2023/07/23 03:03:48;;;;;;;1.97;1.87;;;18.80;99.90;;;19.16;nan;100172.06;5008049;28;21043;-66
2023/07/23 03:06:16;;;;;;;2.20;2.00;;;18.80;99.90;;;19.15;nan;100164.28;5006862;28;20668;-64
2023/07/23 03:08:43;;;;;;;2.17;2.00;;;18.70;99.90;;;19.15;nan;100165.13;5010317;28;20633;-64
2023/07/23 03:11:11;;;;;;;3.70;2.17;;;18.80;99.90;;;19.07;nan;100170.47;5005883;28;20641;-65
2023/07/23 03:13:38;;;;;;;2.33;2.13;;;18.70;99.90;;;19.05;nan;100164.53;5012800;28;20632;-63
2023/07/23 03:16:05;;;;;;;4.13;2.27;;;18.70;99.90;;;19.03;nan;100171.84;5006752;28;20665;-65
2023/07/23 03:18:32;;;;;;;1.87;1.77;;;18.60;99.90;;;19.01;nan;100167.72;5003299;28;20726;-65
2023/07/23 03:20:59;;;;;;;3.13;2.10;;;18.60;99.90;;;19.00;nan;100158.94;5011448;28;20640;-66
2023/07/23 03:23:26;;;;;;;2.20;2.00;;;18.60;99.90;;;18.94;nan;100157.00;5003229;28;21115;-67
2023/07/23 03:25:53;;;;;;;2.43;1.70;;;18.60;99.90;;;18.88;nan;100157.72;5010636;28;20662;-65
2023/07/23 03:28:20;;;;;;;1.27;1.17;;;18.50;99.90;;;18.84;nan;100167.00;5002915;28;20641;-65
2023/07/23 03:30:48;;;;;;;2.27;2.07;;;18.50;99.90;;;18.83;nan;100153.94;5012858;28;20679;-64
2023/07/23 03:33:15;;;;;;;3.70;1.50;;;18.50;99.90;;;18.80;nan;100160.41;5010865;28;20641;-66
2023/07/23 03:35:42;;;;;;;2.10;1.83;;;18.40;99.90;;;18.79;nan;100155.28;4991123;28;20673;-65
2023/07/23 03:38:09;;;;;;;2.80;1.83;;;18.40;99.90;;;18.78;nan;100161.56;4993359;28;20650;-65
2023/07/23 03:40:36;;;;;;;2.53;2.03;;;18.40;99.90;;;18.73;nan;100164.75;4992975;28;20641;-62
2023/07/23 03:43:03;;;;;;;3.20;2.47;;;18.40;99.90;;;18.72;nan;100157.78;5000937;28;20654;-64
2023/07/23 03:45:30;;;;;;;2.30;2.13;;;18.30;99.90;;;18.74;nan;100162.94;5009277;28;20646;-64
2023/07/23 03:47:57;;;;;;;2.30;2.00;;;18.30;99.90;;;18.72;nan;100162.28;5000976;28;21032;-64
2023/07/23 03:50:24;;;;;;;2.00;1.90;;;18.30;99.90;;;18.71;nan;100165.91;4997814;28;20653;-65
2023/07/23 03:52:51;;;;;;;2.50;2.30;;;18.30;99.90;;;18.69;nan;100165.25;4998947;28;20653;-64
2023/07/23 03:55:20;;;;;;;2.40;2.20;;;18.30;99.90;;;18.64;nan;100159.66;5006929;28;20721;-64
2023/07/23 03:57:47;;;;;;;2.37;1.50;;;18.30;99.90;;;18.57;nan;100164.81;5005488;28;20641;-65
2023/07/23 04:00:14;;;;;;;2.23;2.03;;;18.20;99.90;;;18.59;nan;100162.84;5009712;28;22440;-64
2023/07/23 04:02:42;;;;;;;3.40;1.80;;;18.20;99.90;;;18.53;nan;100164.34;4994491;28;21026;-65
2023/07/23 04:05:09;;;;;;;1.30;1.30;;;18.20;99.90;;;18.45;nan;100166.19;5003703;28;20673;-64
2023/07/23 04:07:36;;;;;;;2.50;1.87;;;18.10;99.90;;;18.45;nan;100168.84;5005259;28;20645;-66
2023/07/23 04:10:03;;;;;;;2.30;1.90;;;18.10;99.90;;;18.50;nan;100158.59;5011072;28;20634;-64
2023/07/23 04:12:33;;;;;;;1.47;1.47;;;18.10;99.90;;;18.58;nan;100161.19;5006595;28;20626;-63
2023/07/23 04:15:04;;;;;;;1.90;1.80;;;18.20;99.90;;;18.72;nan;100175.50;5002089;28;20663;-66
2023/07/23 04:17:32;;;;;;;2.37;2.17;;;18.30;99.90;;;18.84;nan;100174.94;5005185;28;21152;-66
2023/07/23 04:19:59;;;;;;;1.90;1.80;;;18.40;99.90;;;18.98;nan;100178.63;5006131;28;20644;-68
2023/07/23 04:22:26;;;;;;;2.23;2.13;;;18.60;99.90;;;19.12;nan;100180.53;5008067;28;20668;-66
2023/07/23 04:24:53;;;;;;;2.60;2.10;;;18.80;99.90;;;19.22;nan;100187.22;5003580;28;21185;-67
2023/07/23 04:27:20;;;;;;;1.90;1.77;;;18.90;99.90;;;19.17;nan;100180.81;5001649;28;21201;-66
2023/07/23 04:29:47;;;;;;;2.33;2.10;;;18.80;99.90;;;19.09;nan;100184.34;4998089;28;20637;-62
2023/07/23 04:32:14;;;;;;;2.33;2.13;;;18.80;99.90;;;18.97;nan;100184.94;5006386;28;20656;-66
2023/07/23 04:34:41;;;;;;;3.10;2.53;;;18.70;99.90;;;18.91;nan;100182.97;5001968;28;21666;-64
2023/07/23 04:37:09;;;;;;;4.13;3.63;;;18.60;99.90;;;18.85;nan;100181.00;5002023;28;21214;-67
2023/07/23 04:39:36;;;;;;;2.73;1.87;;;18.60;99.90;;;18.79;nan;100184.34;4996566;28;20650;-66
2023/07/23 04:42:03;;;;;;;0.80;0.80;;;18.50;99.90;;;18.81;nan;100185.00;4992755;28;22256;-66
2023/07/23 04:44:30;;;;;;;1.97;1.83;;;18.40;99.90;;;18.89;nan;100183.13;4998375;28;21060;-66
2023/07/23 04:46:57;;;;;;;2.33;1.90;;;18.50;99.90;;;18.99;nan;100178.47;5003236;28;21254;-67
2023/07/23 04:49:24;;;;;;;1.63;1.57;;;18.60;99.90;;;19.22;nan;100181.13;4995242;28;20631;-66
2023/07/23 04:51:51;;;;;;;2.70;1.87;;;18.80;99.90;;;19.47;nan;100182.59;5006848;28;21057;-66
2023/07/23 04:54:18;;;;;;;1.37;1.30;;;19.00;99.90;;;19.71;nan;100177.09;5002227;28;20637;-65
2023/07/23 04:56:45;;;;;;;1.67;1.57;;;19.30;99.90;;;19.87;nan;100189.34;5010782;28;20665;-67
2023/07/23 04:59:12;;;;;;;2.00;1.87;;;19.50;99.90;;;19.99;nan;100188.75;5008519;28;21229;-66
2023/07/23 05:01:39;;;;;;;2.37;1.53;;;19.60;99.90;;;20.19;nan;100191.66;5002511;28;20646;-66
2023/07/23 05:04:06;;;;;;;1.90;1.80;;;19.80;99.90;;;20.36;nan;100195.00;5005069;28;20676;-66
2023/07/23 05:06:33;;;;;;;1.43;1.33;;;20.00;99.90;;;20.56;nan;100188.94;5007454;28;20675;-66
2023/07/23 05:09:00;;;;;;;1.77;1.67;;;20.20;99.90;;;20.67;nan;100192.94;5008828;28;20634;-68
2023/07/23 05:11:27;;;;;;;2.13;1.93;;;20.30;99.90;;;20.72;nan;100203.81;5000286;28;20640;-67
2023/07/23 05:13:54;;;;;;;1.90;1.70;;;20.30;99.90;;;20.80;nan;100188.63;4998407;28;20645;-67
2023/07/23 05:16:21;;;;;;;1.80;1.70;;;20.40;99.90;;;20.96;nan;100192.88;5008636;28;21039;-65
2023/07/23 05:18:48;;;;;;;1.63;1.57;;;20.50;99.90;;;21.05;nan;100190.94;5003981;28;20652;-67
2023/07/23 05:21:15;;;;;;;1.33;1.33;;;20.70;99.90;;;21.15;nan;100186.97;4999933;28;20677;-65
2023/07/23 05:23:43;;;;;;;1.17;1.10;;;20.80;99.90;;;21.07;nan;100189.75;4995320;28;21415;-66
2023/07/23 05:26:10;;;;;;;1.80;1.70;;;20.70;99.90;;;20.99;nan;100192.50;5009260;28;20653;-66
2023/07/23 05:28:38;;;;;;;2.47;2.07;;;20.70;99.90;;;20.80;nan;100201.88;5010925;28;20617;-66
2023/07/23 05:31:05;;;;;;;1.70;1.60;;;20.50;99.90;;;20.73;nan;100197.50;5000746;28;20643;-66
2023/07/23 05:33:32;;;;;;;2.07;1.97;;;20.30;99.90;;;20.67;nan;100206.19;5006529;28;20629;-63
2023/07/23 05:35:59;;;;;;;1.57;1.47;;;20.30;99.90;;;20.71;nan;100208.28;4995434;28;21036;-66
2023/07/23 05:38:26;;;;;;;1.70;1.60;;;20.30;99.90;;;20.92;nan;100207.50;4991849;28;20638;-66
2023/07/23 05:40:57;;;;;;;1.97;1.73;;;20.50;99.90;;;21.24;nan;100211.56;5009008;28;20979;-66
2023/07/23 05:43:25;;;;;;;1.27;1.23;;;20.80;99.90;;;21.62;nan;100203.13;4984603;28;20660;-66
2023/07/23 05:45:56;;;;;;;3.40;1.57;;;21.10;99.90;;;21.96;nan;100205.06;4987866;28;20670;-66
2023/07/23 05:48:23;;;;;;;2.23;1.77;;;21.40;99.90;;;22.24;nan;100205.88;4983772;28;20643;-66
2023/07/23 05:50:50;;;;;;;2.10;1.90;;;21.80;99.90;;;22.49;nan;100203.53;4987035;28;20643;-68
2023/07/23 05:53:17;;;;;;;2.00;1.50;;;22.10;99.90;;;22.71;nan;100214.91;4993399;28;21237;-65
2023/07/23 05:55:44;;;;;;;1.60;1.50;;;22.30;99.90;;;22.80;nan;100211.91;4993073;28;20728;-66
2023/07/23 05:58:11;;;;;;;2.20;1.80;;;22.40;99.90;;;22.83;nan;100208.03;4995260;28;20720;-67
2023/07/23 06:00:38;;;;;;;1.30;1.27;;;22.40;99.80;;;22.91;nan;100198.00;4990840;28;21199;-65
2023/07/23 06:03:05;;;;;;;1.50;1.40;;;22.50;99.60;;;22.99;nan;100205.84;5000024;28;21022;-65
2023/07/23 06:05:32;;;;;;;1.50;1.40;;;22.60;99.40;;;23.11;nan;100212.19;5005001;28;21181;-66
2023/07/23 06:07:59;;;;;;;1.80;1.70;;;22.70;99.20;;;23.43;nan;100215.13;5004766;28;21011;-66
2023/07/23 06:10:26;;;;;;;1.20;1.07;;;22.90;98.80;;;23.79;nan;100208.41;4995826;28;20677;-66
2023/07/23 06:12:53;;;;;;;0.90;0.90;;;23.30;98.30;;;24.29;nan;100206.94;5005368;28;20745;-66
2023/07/23 06:15:20;;;;;;;1.60;1.50;;;23.70;97.70;;;24.73;nan;100210.66;5002332;28;20673;-66
2023/07/23 06:17:47;;;;;;;1.57;1.47;;;24.20;96.70;;;25.01;nan;100209.34;5006466;28;21179;-67
2023/07/23 06:20:15;;;;;;;1.63;1.53;;;24.50;95.90;;;25.51;nan;100209.47;5001342;28;21176;-68
2023/07/23 06:22:42;;;;;;;1.27;1.23;;;24.90;95.10;;;25.88;nan;100206.69;4989625;28;20653;-65
2023/07/23 06:25:09;;;;;;;1.50;1.40;;;25.30;94.30;;;26.30;nan;100215.75;5001868;28;21495;-67
2023/07/23 06:27:36;;;;;;;1.53;1.43;;;25.70;93.20;;;26.36;nan;100222.09;5007287;28;20652;-65
2023/07/23 06:30:04;;;;;;;1.77;1.70;;;25.80;92.30;;;26.48;nan;100215.75;4997055;28;20650;-66
2023/07/23 06:32:31;;;;;;;1.23;1.13;;;26.00;91.80;;;26.54;nan;100214.03;5005809;28;21199;-66
2023/07/23 06:34:58;;;;;;;1.83;1.73;;;26.00;91.70;;;26.74;nan;100201.28;5005670;28;21236;-66
2023/07/23 06:37:25;;;;;;;1.43;1.33;;;26.20;91.20;;;26.81;nan;100212.72;5000442;28;20661;-67
2023/07/23 06:39:52;;;;;;;1.03;1.03;;;26.30;90.80;;;27.17;nan;100206.47;5008237;28;21229;-67
2023/07/23 06:42:19;;;;;;;1.27;1.27;;;26.50;90.30;;;27.59;nan;100208.94;5001067;28;21523;-66
2023/07/23 06:44:46;;;;;;;1.27;1.20;;;27.00;89.60;;;28.11;nan;100214.47;4995050;28;20681;-66
2023/07/23 06:47:15;;;;;;;1.37;1.27;;;27.50;87.80;;;28.36;nan;100215.84;5008709;28;21002;-66
2023/07/23 06:49:42;;;;;;;1.27;1.27;;;27.80;85.80;;;28.58;nan;100209.88;4996846;28;21199;-67
2023/07/23 06:52:09;;;;;;;1.30;1.30;;;28.00;84.80;;;28.70;nan;100194.56;4993477;28;20642;-66
2023/07/23 06:54:40;;;;;;;2.37;1.30;;;28.20;83.50;;;29.07;nan;100193.91;4992546;28;20645;-67
2023/07/23 06:57:08;;;;;;;1.10;1.10;;;28.60;82.00;;;29.39;nan;100196.94;5003739;28;20641;-68
2023/07/23 06:59:35;;;;;;;3.60;1.50;;;29.00;80.50;;;29.81;nan;100195.50;5000094;28;20639;-64
2023/07/23 07:02:02;;;;;;;1.20;1.20;;;29.30;79.60;;;30.22;nan;100194.19;4990802;28;20646;-64
2023/07/23 07:04:29;;;;;;;1.57;1.57;;;29.70;78.00;;;30.22;nan;100202.28;4989210;28;20674;-66
2023/07/23 07:06:56;;;;;;;2.20;1.90;;;29.80;76.60;;;30.62;nan;100197.44;4986672;28;21267;-66
2023/07/23 07:09:23;;;;;;;2.20;1.20;;;30.00;76.20;;;31.05;nan;100195.81;4988953;28;20688;-69
2023/07/23 07:11:51;;;;;;;1.10;1.07;;;30.60;74.50;;;31.75;nan;100203.72;4988626;28;20673;-66
2023/07/23 07:14:18;;;;;;;1.70;1.60;;;31.10;73.30;;;31.93;nan;100201.41;5006678;28;20645;-67
2023/07/23 07:16:45;;;;;;;1.30;1.30;;;31.40;71.50;;;31.54;nan;100196.53;4998114;28;20649;-67
2023/07/23 07:19:12;;;;;;;1.20;1.10;;;31.10;70.60;;;30.62;nan;100189.34;5000638;28;20629;-68
2023/07/23 07:21:39;;;;;;;1.30;1.30;;;30.40;71.30;;;29.99;nan;100188.22;4999414;28;20634;-67
2023/07/23 07:24:06;;;;;;;1.40;1.30;;;29.70;72.70;;;29.58;nan;100190.25;4998089;28;21049;-68
2023/07/23 07:26:33;;;;;;;1.53;1.43;;;29.20;74.30;;;29.59;nan;100193.78;5010946;28;20653;-67
2023/07/23 07:29:00;;;;;;;0.80;0.80;;;29.10;73.80;;;29.64;nan;100191.16;5006603;28;20641;-66
2023/07/23 07:31:27;;;;;;;0.80;0.80;;;29.20;73.50;;;29.65;nan;100196.28;5006939;28;20661;-66
2023/07/23 07:33:54;;;;;;;1.27;1.20;;;29.20;73.30;;;29.70;nan;100192.88;4990319;28;21011;-66
2023/07/23 07:36:21;;;;;;;0.90;0.90;;;29.20;73.10;;;29.68;nan;100185.06;4994669;28;20670;-66
2023/07/23 07:38:48;;;;;;;1.37;1.27;;;29.20;73.10;;;29.40;nan;100189.69;4985877;28;20642;-67
2023/07/23 07:41:15;;;;;;;1.43;1.00;;;29.00;72.70;;;28.89;nan;100190.63;5003744;28;20649;-66
2023/07/23 07:43:42;;;;;;;5.03;1.37;;;28.60;72.90;;;28.40;nan;100184.81;5003092;28;21198;-68
2023/07/23 07:46:09;;;;;;;1.17;1.17;;;28.10;73.80;;;28.20;nan;100181.69;5011529;28;20676;-66
2023/07/23 07:48:37;;;;;;;0.80;0.80;;;27.80;74.80;;;28.03;nan;100182.63;5002619;28;20630;-67
2023/07/23 07:51:06;;;;;;;0.73;0.73;;;27.60;75.30;;;27.77;nan;100196.50;4998337;28;20645;-67
2023/07/23 07:53:35;;;;;;;0.87;0.87;;;27.40;75.50;;;27.53;nan;100175.03;4991730;28;20637;-66
2023/07/23 07:56:03;;;;;;;0.60;0.60;;;27.20;76.20;;;27.27;nan;100185.28;5004641;28;20661;-66
2023/07/23 07:58:31;;;;;;;1.17;0.63;;;27.00;77.10;;;27.14;nan;100174.78;4992487;28;20638;-66
2023/07/23 08:00:59;;;;;;;0.63;0.63;;;26.70;77.70;;;26.94;nan;100185.75;4996815;28;20649;-65
2023/07/23 08:03:29;;;;;;;0.90;0.70;;;26.50;77.70;;;26.76;nan;100177.78;4999876;28;20649;-65
2023/07/23 08:05:58;;;;;;;0.80;0.80;;;26.40;78.50;;;26.64;nan;100185.72;5008889;28;20673;-65
2023/07/23 08:08:32;;;;;;;0.90;0.80;;;26.20;79.10;;;26.53;nan;100180.31;5000321;28;20638;-67
2023/07/23 08:11:01;;;;;;;0.90;0.90;;;26.10;79.60;;;26.47;nan;100183.91;5006394;28;20648;-66
2023/07/23 08:13:29;;;;;;;0.83;0.83;;;26.00;80.00;;;26.37;nan;100194.28;5007108;28;21617;-65
2023/07/23 08:15:56;;;;;;;0.90;0.67;;;25.90;80.40;;;26.28;nan;100190.28;5000552;28;20664;-66
2023/07/23 08:18:24;;;;;;;0.90;0.80;;;25.80;80.50;;;26.21;nan;100179.66;5006312;28;20643;-66
2023/07/23 08:20:54;;;;;;;0.90;0.90;;;25.70;81.00;;;26.25;nan;100190.72;4987611;28;21039;-67
2023/07/23 08:23:22;;;;;;;0.80;0.80;;;25.70;81.40;;;26.30;nan;100191.69;4990949;28;20645;-65
2023/07/23 08:25:53;;;;;;;0.80;0.80;;;25.80;80.90;;;26.43;nan;100183.50;4986806;28;20684;-68
2023/07/23 08:28:26;;;;;;;0.80;0.80;;;25.90;80.50;;;26.33;nan;100193.09;5000077;28;20638;-66
2023/07/23 08:30:56;;;;;;;0.80;0.77;;;25.80;80.40;;;26.33;nan;100187.75;4990979;28;21215;-65
2023/07/23 08:33:31;;;;;;;0.80;0.80;;;25.80;81.00;;;26.17;nan;100183.00;5001049;28;20699;-67
2023/07/23 08:36:00;;;;;;;0.90;0.90;;;25.80;81.10;;;26.01;nan;100185.19;5000163;28;20676;-65
2023/07/23 08:38:28;;;;;;;0.77;0.70;;;25.50;81.40;;;25.92;nan;100178.47;4993358;28;20642;-67
2023/07/23 08:41:03;;;;;;;0.80;0.80;;;25.40;82.20;;;25.81;nan;100176.50;5002512;28;20693;-68
2023/07/23 08:44:08;;;;;;;0.90;0.90;;;25.30;82.80;;;25.49;nan;100184.84;5007332;28;20648;-65
2023/07/23 08:46:46;;;;;;;0.90;0.90;;;25.10;83.60;;;25.38;nan;100183.66;4990454;28;20691;-66
2023/07/23 08:49:17;;;;;;;0.80;0.80;;;24.90;84.60;;;25.32;nan;100184.53;4995390;28;20638;-67
2023/07/23 08:51:48;;;;;;;0.80;0.80;;;24.80;85.40;;;25.35;nan;100190.22;4998827;28;20645;-65
2023/07/23 08:54:18;;;;;;;0.70;0.70;;;24.80;86.00;;;25.37;nan;100185.50;4996897;28;20649;-65
2023/07/23 08:56:45;;;;;;;0.97;0.97;;;24.90;86.20;;;25.41;nan;100185.88;5001474;28;20657;-65
2023/07/23 08:59:12;;;;;;;0.80;0.80;;;24.90;86.00;;;25.46;nan;100180.72;4997156;28;20641;-66
2023/07/23 09:01:41;;;;;;;0.57;0.57;;;24.90;86.30;;;25.51;nan;100164.06;5000581;28;20638;-65
2023/07/23 09:04:13;;;;;;;0.70;0.70;;;25.00;86.70;;;25.70;nan;100179.94;5001098;28;20641;-66
2023/07/23 09:06:43;;;;;;;0.67;0.67;;;25.10;86.40;;;25.92;nan;100170.44;5000029;28;20680;-65
2023/07/23 09:09:12;;;;;;;1.27;0.93;;;25.30;86.70;;;26.17;nan;100176.59;5001840;28;20691;-66
2023/07/23 09:11:40;;;;;;;1.10;1.00;;;25.60;86.60;;;26.46;nan;100172.38;4999576;28;20644;-66
2023/07/23 09:14:13;;;;;;;0.90;0.80;;;25.80;86.00;;;26.72;nan;100166.72;5002677;28;20646;-65
2023/07/23 09:16:46;;;;;;;0.77;0.77;;;26.10;85.60;;;27.19;nan;100173.06;5001686;28;20661;-66
2023/07/23 09:19:29;;;;;;;0.90;0.90;;;26.50;85.10;;;27.44;nan;100176.41;5005340;28;20646;-66
2023/07/23 09:22:00;;;;;;;0.90;0.90;;;26.90;83.80;;;27.90;nan;100172.13;4984672;28;20645;-66
2023/07/23 09:24:34;;;;;;;1.13;1.13;;;27.20;83.40;;;28.30;nan;100165.00;4993760;28;20634;-65
2023/07/23 09:27:03;;;;;;;0.90;0.90;;;27.70;82.00;;;28.53;nan;100158.75;4988878;28;20733;-66
2023/07/23 09:29:39;;;;;;;1.10;1.10;;;28.00;80.50;;;28.26;nan;100159.28;5001560;28;20641;-65
2023/07/23 09:32:25;;;;;;;0.93;0.93;;;27.80;80.40;;;27.99;nan;100160.00;5007933;28;20634;-66
2023/07/23 09:34:58;;;;;;;1.00;1.00;;;27.50;80.80;;;27.75;nan;100159.16;4996916;28;20639;-64
2023/07/23 09:37:29;;;;;;;1.03;1.03;;;27.30;80.90;;;27.48;nan;100161.50;5004051;28;21420;-62
2023/07/23 09:39:57;;;;;;;1.57;1.17;;;27.00;81.20;;;27.33;nan;100161.09;4997134;28;20634;-67
2023/07/23 09:42:24;;;;;;;0.87;0.87;;;26.90;81.70;;;27.07;nan;100152.66;5004104;28;20633;-64
2023/07/23 09:44:51;;;;;;;0.90;0.90;;;26.60;82.40;;;26.90;nan;100152.47;5000542;28;20652;-64
2023/07/23 09:47:27;;;;;;;1.17;1.10;;;26.40;82.90;;;26.75;nan;100149.38;4992028;28;20638;-64
2023/07/23 09:49:54;;;;;;;2.30;0.80;;;26.30;82.90;;;26.54;nan;100152.50;5002911;28;21404;-63
2023/07/23 09:52:26;;;;;;;5.80;1.00;;;26.10;83.20;;;26.43;nan;100150.63;4983422;28;20642;-64
2023/07/23 09:54:53;;;;;;;0.90;0.90;;;26.00;83.90;;;26.43;nan;100158.63;4982393;28;20634;-65
2023/07/23 09:57:21;;;;;;;1.10;1.10;;;25.90;84.50;;;26.47;nan;100159.81;4982003;28;20642;-69
2023/07/23 09:59:49;;;;;;;0.87;0.87;;;26.00;84.80;;;26.49;nan;100161.19;4999545;28;21070;-68
2023/07/23 10:02:18;;;;;;;0.97;0.97;;;26.00;84.60;;;26.42;nan;100155.13;4983934;28;21826;-66
2023/07/23 10:04:46;;;;;;;1.10;1.10;;;25.90;84.60;;;26.44;nan;100162.94;4986751;28;21254;-67
2023/07/23 10:07:14;;;;;;;0.70;0.70;;;26.00;84.20;;;26.47;nan;100159.81;4994608;28;21038;-65
2023/07/23 10:09:41;;;;;;;0.80;0.80;;;26.00;83.40;;;26.52;nan;100152.75;4997343;28;20645;-67
2023/07/23 10:12:08;;;;;;;1.00;1.00;;;26.00;83.60;;;26.70;nan;100152.72;4993881;28;20651;-64
2023/07/23 10:14:36;;;;;;;1.20;1.20;;;26.10;83.80;;;26.86;nan;100145.94;5002099;28;20625;-64
2023/07/23 10:17:06;;;;;;;2.60;1.00;;;26.30;83.60;;;26.97;nan;100147.00;4997036;28;20674;-64
2023/07/23 10:19:33;;;;;;;1.00;1.00;;;26.40;83.30;;;27.06;nan;100145.66;4993247;28;21041;-66
2023/07/23 10:22:00;;;;;;;0.93;0.93;;;26.50;83.00;;;27.20;nan;100142.53;5021905;28;20644;-63
2023/07/23 10:24:38;;;;;;;1.00;1.00;;;26.60;83.00;;;27.39;nan;100151.34;4996636;28;20646;-64
2023/07/23 10:27:14;;;;;;;0.97;0.90;;;26.80;83.00;;;27.38;nan;100145.19;4992002;28;20730;-63
2023/07/23 10:30:18;;;;;;;0.97;0.97;;;26.80;82.40;;;27.36;nan;100147.28;4987190;28;20633;-64